Terminal Aerodrome Forecast
Issued by NWS

Home | Current Version | Previous Version | Text Only | Print | Product List | Glossary On
Versions: 1 2 3 4 5 6 7 8 9 10 11 12 13 14 15
000
FTUS46 KPDT 292300
TAFALW
TAF
KALW 292326Z 3000/3024 24011KT P6SM BKN200
     FM300400 VRB06KT P6SM SCT080 BKN150
     FM300900 18009KT P6SM BKN080
     FM301600 22011KT P6SM FEW090 FEW250
     FM302100 25013KT P6SM SCT080=

USA.gov is the U.S. government's official web portal to all federal, state and local government web resources and services.